Time;durP1;ratioP1;P1;durP2;ratioP2;P2;SDS_P1;SDS_P2;PMS_P1;PMS_P2;Temp;Humidity;BMP_temperature;BMP_pressure;BME280_temperature;BME280_humidity;BME280_pressure;Samples;Min_cycle;Max_cycle;Signal;HPM_P1;HPM_P2
2023/07/18 00:00:14;;;;;;;37.40;34.70;;;;;;;;;;5061697;28;20600;-88
2023/07/18 00:02:42;;;;;;;37.80;35.13;;;;;;;;;;5062643;28;20451;-88
2023/07/18 00:05:12;;;;;;;37.43;34.50;;;;;;;;;;5061501;28;20478;-88
2023/07/18 00:07:41;;;;;;;37.80;34.87;;;;;;;;;;5061461;28;20417;-88
2023/07/18 00:10:08;;;;;;;38.97;36.20;;;;;;;;;;5060509;28;20830;-88
2023/07/18 00:12:35;;;;;;;40.43;37.23;;;;;;;;;;5061436;28;20428;-88
2023/07/18 00:15:03;;;;;;;38.37;35.83;;;;;;;;;;5060067;28;20772;-88
2023/07/18 00:17:31;;;;;;;40.27;37.20;;;;;;;;;;5059841;28;20419;-87
2023/07/18 00:19:59;;;;;;;41.10;38.00;;;;;;;;;;5059753;28;20436;-88
2023/07/18 00:22:26;;;;;;;40.13;37.43;;;;;;;;;;5060568;28;20474;-88
2023/07/18 00:24:54;;;;;;;40.30;37.37;;;;;;;;;;5060989;28;20432;-88
2023/07/18 00:27:21;;;;;;;38.23;35.63;;;;;;;;;;5060940;28;20412;-88
2023/07/18 00:29:48;;;;;;;37.00;34.50;;;;;;;;;;5060602;28;20439;-88
2023/07/18 00:32:15;;;;;;;37.40;34.90;;;;;;;;;;5060732;28;20486;-88
2023/07/18 00:34:44;;;;;;;36.33;33.73;;;;;;;;;;5059889;28;20447;-89
2023/07/18 00:37:11;;;;;;;37.70;34.80;;;;;;;;;;5060294;28;20482;-89
2023/07/18 00:39:38;;;;;;;37.40;34.50;;;;;;;;;;5060104;28;20437;-88
2023/07/18 00:42:07;;;;;;;39.83;36.60;;;;;;;;;;5060531;28;20818;-89
2023/07/18 00:44:34;;;;;;;39.13;36.27;;;;;;;;;;5060657;28;20455;-89
2023/07/18 00:47:02;;;;;;;38.83;36.27;;;;;;;;;;5060006;28;20483;-89
2023/07/18 00:49:29;;;;;;;39.33;36.33;;;;;;;;;;5059514;28;20473;-89
2023/07/18 00:51:57;;;;;;;39.37;36.30;;;;;;;;;;5059922;28;20964;-88
2023/07/18 00:54:25;;;;;;;36.37;33.80;;;;;;;;;;5060857;28;20490;-88
2023/07/18 00:56:52;;;;;;;35.83;33.23;;;;;;;;;;5059406;28;20409;-89
2023/07/18 00:59:21;;;;;;;38.77;35.70;;;;;;;;;;5060203;28;20438;-88
2023/07/18 01:01:48;;;;;;;38.37;35.87;;;;;;;;;;5059599;28;20982;-89
2023/07/18 01:04:18;;;;;;;38.73;35.77;;;;;;;;;;5059417;28;20413;-88
2023/07/18 01:06:45;;;;;;;39.23;36.27;;;;;;;;;;5059531;28;20796;-89
2023/07/18 01:09:12;;;;;;;38.83;36.20;;;;;;;;;;5059170;28;20428;-89
2023/07/18 01:11:39;;;;;;;38.60;35.83;;;;;;;;;;5059580;28;20470;-88
2023/07/18 01:14:09;;;;;;;40.13;37.37;;;;;;;;;;5060627;28;20413;-88
2023/07/18 01:16:38;;;;;;;40.27;37.27;;;;;;;;;;5060021;28;20512;-89
2023/07/18 01:19:05;;;;;;;39.50;37.00;;;;;;;;;;5058736;28;20529;-88
2023/07/18 01:21:33;;;;;;;37.73;35.23;;;;;;;;;;5058408;28;20462;-88
2023/07/18 01:24:00;;;;;;;37.23;34.53;;;;;;;;;;5039142;28;20809;-89
2023/07/18 01:26:27;;;;;;;38.77;35.77;;;;;;;;;;5038987;28;20454;-89
2023/07/18 01:28:55;;;;;;;38.50;36.03;;;;;;;;;;5038229;28;20451;-88
2023/07/18 01:31:22;;;;;;;39.37;36.67;;;;;;;;;;5040142;28;20538;-88
2023/07/18 01:33:49;;;;;;;38.23;35.70;;;;;;;;;;5041070;28;20406;-88
2023/07/18 01:36:16;;;;;;;37.83;35.30;;;;;;;;;;5039806;28;20444;-89
2023/07/18 01:38:45;;;;;;;34.47;32.10;;;;;;;;;;5039410;28;20490;-89
2023/07/18 01:41:12;;;;;;;36.00;33.43;;;;;;;;;;5038886;28;20947;-89
2023/07/18 01:43:39;;;;;;;36.77;34.07;;;;;;;;;;5038296;28;20421;-88
2023/07/18 01:46:06;;;;;;;39.53;36.57;;;;;;;;;;5038880;28;20461;-88
2023/07/18 01:48:34;;;;;;;35.80;33.37;;;;;;;;;;5039460;28;20429;-89
2023/07/18 01:51:00;;;;;;;34.87;32.33;;;;;;;;;;5039464;28;20441;-89
2023/07/18 01:53:27;;;;;;;35.13;32.40;;;;;;;;;;5039760;28;20433;-88
2023/07/18 01:58:59;;;;;;;34.17;31.67;;;;;;;;;;5037386;28;20437;-89
2023/07/18 02:01:27;;;;;;;34.37;31.60;;;;;;;;;;5038319;28;20449;-88
2023/07/18 02:03:54;;;;;;;35.23;32.90;;;;;;;;;;5039237;28;20476;-88
2023/07/18 02:06:25;;;;;;;35.40;32.67;;;;;;;;;;5037909;28;20486;-88
2023/07/18 02:08:52;;;;;;;34.70;32.40;;;;;;;;;;5036471;28;20497;-89
2023/07/18 02:11:19;;;;;;;34.50;32.17;;;;;;;;;;5038794;28;20430;-88
2023/07/18 02:13:46;;;;;;;35.13;32.60;;;;;;;;;;5038960;28;20421;-89
2023/07/18 02:16:14;;;;;;;35.23;32.97;;;;;;;;;;5038354;28;20433;-88
2023/07/18 02:18:43;;;;;;;33.80;31.70;;;;;;;;;;5037013;28;20444;-88
2023/07/18 02:21:10;;;;;;;34.60;32.10;;;;;;;;;;5038806;28;20438;-89
2023/07/18 02:23:38;;;;;;;35.47;33.07;;;;;;;;;;5040338;28;20452;-89
2023/07/18 02:26:05;;;;;;;34.60;32.20;;;;;;;;;;5039543;28;20449;-89
2023/07/18 02:28:32;;;;;;;34.63;32.00;;;;;;;;;;5039142;28;20425;-89
2023/07/18 02:30:59;;;;;;;35.37;32.87;;;;;;;;;;5039395;28;20453;-88
2023/07/18 02:33:28;;;;;;;34.30;31.87;;;;;;;;;;5038901;28;20546;-89
2023/07/18 02:35:55;;;;;;;33.50;31.27;;;;;;;;;;5036942;28;20418;-89
2023/07/18 02:38:22;;;;;;;34.63;32.27;;;;;;;;;;5038234;28;20806;-89
2023/07/18 02:40:50;;;;;;;36.07;33.77;;;;;;;;;;5038462;28;20434;-89
2023/07/18 02:43:17;;;;;;;34.10;31.87;;;;;;;;;;5037560;28;20417;-89
2023/07/18 02:45:44;;;;;;;35.03;32.67;;;;;;;;;;5037982;28;20465;-88
2023/07/18 02:48:11;;;;;;;34.87;32.53;;;;;;;;;;5036158;28;20424;-89
2023/07/18 02:50:39;;;;;;;35.47;32.97;;;;;;;;;;5036035;28;20460;-89
2023/07/18 02:53:08;;;;;;;36.80;34.20;;;;;;;;;;5036284;28;20824;-89
2023/07/18 02:55:35;;;;;;;35.10;32.60;;;;;;;;;;5036494;28;20504;-89
2023/07/18 02:58:02;;;;;;;35.17;32.50;;;;;;;;;;5035597;28;20417;-89
2023/07/18 03:00:31;;;;;;;36.83;34.30;;;;;;;;;;5036133;28;20435;-88
2023/07/18 03:02:58;;;;;;;36.33;34.10;;;;;;;;;;5036547;28;20421;-89
2023/07/18 03:05:27;;;;;;;35.87;32.90;;;;;;;;;;5036528;28;20413;-89
2023/07/18 03:07:55;;;;;;;34.27;32.17;;;;;;;;;;5035571;28;20490;-88
2023/07/18 03:10:22;;;;;;;35.97;33.67;;;;;;;;;;5034406;28;20930;-88
2023/07/18 03:12:49;;;;;;;35.10;32.90;;;;;;;;;;5035649;28;20421;-88
2023/07/18 03:15:17;;;;;;;34.90;32.70;;;;;;;;;;5035221;28;20410;-89
2023/07/18 03:17:44;;;;;;;38.83;36.03;;;;;;;;;;5035393;28;20422;-89
2023/07/18 03:20:16;;;;;;;35.27;32.87;;;;;;;;;;5033942;28;20448;-89
2023/07/18 03:22:43;;;;;;;37.53;34.93;;;;;;;;;;5035776;28;20450;-88
2023/07/18 03:25:13;;;;;;;39.07;36.27;;;;;;;;;;5035856;28;20444;-88
2023/07/18 03:27:40;;;;;;;37.80;35.30;;;;;;;;;;5035898;28;20453;-89
2023/07/18 03:30:10;;;;;;;37.03;34.83;;;;;;;;;;5035163;28;20455;-89
2023/07/18 03:32:37;;;;;;;37.60;34.63;;;;;;;;;;5035616;28;20430;-89
2023/07/18 03:35:06;;;;;;;36.47;33.60;;;;;;;;;;5035561;28;20417;-89
2023/07/18 03:37:33;;;;;;;36.10;33.60;;;;;;;;;;5035874;28;20414;-89
2023/07/18 03:40:00;;;;;;;37.20;34.87;;;;;;;;;;5034402;28;20826;-89
2023/07/18 03:42:30;;;;;;;35.63;33.40;;;;;;;;;;5035246;28;20437;-89
2023/07/18 03:44:57;;;;;;;34.17;32.07;;;;;;;;;;5035575;28;20448;-90
2023/07/18 03:47:25;;;;;;;36.23;33.77;;;;;;;;;;5035320;28;20493;-89
2023/07/18 03:49:52;;;;;;;38.10;35.53;;;;;;;;;;5035117;28;20940;-89
2023/07/18 03:52:19;;;;;;;36.43;33.93;;;;;;;;;;5035225;28;20935;-89
2023/07/18 03:54:46;;;;;;;36.83;34.33;;;;;;;;;;5035339;28;20440;-90
2023/07/18 03:57:13;;;;;;;35.00;32.63;;;;;;;;;;5034605;28;20413;-89
2023/07/18 03:59:42;;;;;;;37.30;34.97;;;;;;;;;;5034027;28;20433;-89
2023/07/18 04:02:19;;;;;;;35.57;33.37;;;;;;;;;;5033859;28;20805;-89
2023/07/18 04:04:46;;;;;;;35.90;33.50;;;;;;;;;;5033740;28;20452;-89
2023/07/18 04:07:13;;;;;;;33.70;31.60;;;;;;;;;;5034143;28;20459;-89
2023/07/18 04:09:40;;;;;;;36.47;33.97;;;;;;;;;;5033855;28;20467;-89
2023/07/18 04:12:07;;;;;;;35.87;33.57;;;;;;;;;;5033837;28;20451;-89
2023/07/18 04:14:35;;;;;;;38.10;35.43;;;;;;;;;;5033959;28;20469;-89
2023/07/18 04:17:04;;;;;;;35.57;33.00;;;;;;;;;;5033771;28;20443;-89
2023/07/18 04:19:31;;;;;;;36.83;34.10;;;;;;;;;;5032980;28;20421;-89
2023/07/18 04:21:58;;;;;;;35.60;33.30;;;;;;;;;;5033407;28;20453;-89
2023/07/18 04:24:25;;;;;;;36.40;34.00;;;;;;;;;;5033712;28;20440;-89
2023/07/18 04:26:52;;;;;;;36.33;34.03;;;;;;;;;;5033699;28;20486;-90
2023/07/18 04:29:19;;;;;;;37.90;35.30;;;;;;;;;;5033297;28;20432;-89
2023/07/18 04:31:47;;;;;;;36.17;33.77;;;;;;;;;;5035804;28;20909;-88
2023/07/18 04:34:16;;;;;;;37.23;34.73;;;;;;;;;;5037674;28;20520;-89
2023/07/18 04:36:43;;;;;;;35.23;32.83;;;;;;;;;;5038201;28;20443;-89
2023/07/18 04:39:10;;;;;;;35.20;32.60;;;;;;;;;;5037063;28;21050;-89
2023/07/18 04:41:38;;;;;;;37.53;34.53;;;;;;;;;;5036960;28;20461;-89
2023/07/18 04:44:05;;;;;;;37.60;34.80;;;;;;;;;;5037529;28;20438;-89
2023/07/18 04:46:32;;;;;;;36.13;33.53;;;;;;;;;;5037694;28;20464;-90
2023/07/18 04:48:59;;;;;;;35.93;33.53;;;;;;;;;;5037014;28;20433;-89
2023/07/18 04:51:27;;;;;;;37.60;35.13;;;;;;;;;;5037146;28;20465;-89
2023/07/18 04:53:56;;;;;;;36.37;34.07;;;;;;;;;;5036952;28;20966;-89
2023/07/18 04:56:23;;;;;;;34.87;32.57;;;;;;;;;;5036998;28;20490;-89
2023/07/18 04:58:50;;;;;;;36.17;33.50;;;;;;;;;;5036295;28;20445;-89
2023/07/18 05:01:17;;;;;;;35.33;32.80;;;;;;;;;;5044130;28;20472;-90
2023/07/18 05:03:44;;;;;;;37.53;35.23;;;;;;;;;;5056850;28;20434;-89
2023/07/18 05:06:12;;;;;;;37.13;34.60;;;;;;;;;;5056667;28;20793;-89
2023/07/18 05:08:40;;;;;;;38.00;35.53;;;;;;;;;;5056637;28;20861;-89
2023/07/18 05:11:08;;;;;;;34.53;32.13;;;;;;;;;;5056433;28;20468;-89
2023/07/18 05:13:35;;;;;;;36.37;33.87;;;;;;;;;;5057112;28;20946;-89
2023/07/18 05:16:03;;;;;;;37.27;34.60;;;;;;;;;;5056678;28;20935;-89
2023/07/18 05:18:30;;;;;;;33.83;31.30;;;;;;;;;;5055711;28;20416;-90
2023/07/18 05:20:58;;;;;;;34.20;31.80;;;;;;;;;;5056007;28;20549;-90
2023/07/18 05:23:25;;;;;;;34.40;31.80;;;;;;;;;;5056054;28;20438;-89
2023/07/18 05:25:56;;;;;;;35.53;32.63;;;;;;;;;;5056742;28;20427;-89
2023/07/18 05:28:23;;;;;;;32.13;29.93;;;;;;;;;;5055620;28;20533;-90
2023/07/18 05:30:50;;;;;;;33.10;30.83;;;;;;;;;;5056099;28;20460;-90
2023/07/18 05:33:17;;;;;;;31.90;29.53;;;;;;;;;;5056100;28;20477;-89
2023/07/18 05:35:44;;;;;;;32.10;29.80;;;;;;;;;;5056189;28;20461;-89
2023/07/18 05:38:11;;;;;;;33.20;31.00;;;;;;;;;;5056443;28;20429;-90
2023/07/18 05:40:41;;;;;;;31.77;29.33;;;;;;;;;;5055472;28;20498;-90
2023/07/18 05:43:31;;;;;;;32.53;29.93;;;;;;;;;;5055684;28;20432;-89
2023/07/18 05:46:00;;;;;;;30.50;28.40;;;;;;;;;;5055709;28;20390;-89
2023/07/18 05:48:28;;;;;;;31.63;29.10;;;;;;;;;;5054984;28;20475;-90
2023/07/18 05:50:55;;;;;;;31.17;29.10;;;;;;;;;;5055997;28;20991;-89
2023/07/18 05:53:23;;;;;;;30.43;28.33;;;;;;;;;;5055787;28;20453;-89
2023/07/18 05:55:50;;;;;;;30.43;28.17;;;;;;;;;;5055601;28;20439;-89
2023/07/18 05:58:17;;;;;;;29.40;27.50;;;;;;;;;;5055729;28;20793;-90
2023/07/18 06:00:44;;;;;;;30.30;28.07;;;;;;;;;;5054800;28;20449;-89
2023/07/18 06:03:20;;;;;;;28.10;26.03;;;;;;;;;;5055110;28;20780;-90
2023/07/18 06:05:53;;;;;;;27.80;26.00;;;;;;;;;;5055540;28;20450;-89
2023/07/18 06:08:21;;;;;;;28.20;26.33;;;;;;;;;;5055345;28;20476;-90
2023/07/18 06:10:48;;;;;;;28.00;26.27;;;;;;;;;;5055213;28;21000;-89
2023/07/18 06:13:15;;;;;;;26.43;24.67;;;;;;;;;;5055191;28;20421;-90
2023/07/18 06:15:42;;;;;;;28.50;26.20;;;;;;;;;;5055240;28;20459;-89
2023/07/18 06:18:09;;;;;;;28.87;26.50;;;;;;;;;;5054915;28;20447;-89
2023/07/18 06:20:40;;;;;;;29.03;27.00;;;;;;;;;;5054105;28;20433;-89
2023/07/18 06:23:07;;;;;;;27.50;25.60;;;;;;;;;;5054860;28;20750;-89
2023/07/18 06:25:35;;;;;;;28.73;26.40;;;;;;;;;;5057188;28;20440;-89
2023/07/18 06:28:03;;;;;;;27.27;25.47;;;;;;;;;;5055374;28;20482;-89
2023/07/18 06:30:31;;;;;;;26.70;25.20;;;;;;;;;;5054690;28;20550;-90
2023/07/18 06:32:59;;;;;;;26.47;24.77;;;;;;;;;;5055121;28;20922;-89
2023/07/18 06:35:26;;;;;;;26.60;25.00;;;;;;;;;;5055318;28;20446;-89
2023/07/18 06:37:55;;;;;;;25.70;23.80;;;;;;;;;;5056110;28;20448;-89
2023/07/18 06:40:22;;;;;;;26.17;24.40;;;;;;;;;;5062953;28;20412;-89
2023/07/18 06:42:49;;;;;;;24.60;23.20;;;;;;;;;;5065453;28;20418;-89
2023/07/18 06:45:16;;;;;;;24.30;22.40;;;;;;;;;;5060077;28;20420;-88
2023/07/18 06:47:44;;;;;;;24.53;22.97;;;;;;;;;;5059514;28;20468;-88
2023/07/18 06:50:12;;;;;;;25.33;23.20;;;;;;;;;;5053734;28;20565;-88
2023/07/18 06:52:39;;;;;;;25.00;23.27;;;;;;;;;;5055332;28;20809;-87
2023/07/18 06:55:10;;;;;;;25.70;24.00;;;;;;;;;;5053625;28;20504;-88
2023/07/18 06:57:37;;;;;;;24.40;22.90;;;;;;;;;;5054343;28;20413;-87
2023/07/18 07:00:06;;;;;;;24.87;23.03;;;;;;;;;;5053533;28;20877;-87
2023/07/18 07:02:41;;;;;;;24.90;22.90;;;;;;;;;;5054227;28;20533;-87
2023/07/18 07:05:09;;;;;;;22.10;20.90;;;;;;;;;;5054082;28;20432;-87
2023/07/18 07:07:36;;;;;;;24.50;22.90;;;;;;;;;;5054149;28;20863;-88
2023/07/18 07:10:03;;;;;;;24.80;23.37;;;;;;;;;;5053697;28;20741;-87
2023/07/18 07:12:32;;;;;;;24.33;22.43;;;;;;;;;;5053997;28;20450;-88
2023/07/18 07:14:59;;;;;;;24.33;22.67;;;;;;;;;;5054311;28;20430;-88
2023/07/18 07:17:26;;;;;;;25.60;23.90;;;;;;;;;;5053501;28;20432;-89
2023/07/18 07:19:53;;;;;;;24.40;22.60;;;;;;;;;;5053598;28;20496;-88
2023/07/18 07:22:20;;;;;;;26.10;24.30;;;;;;;;;;5054112;28;20459;-87
2023/07/18 07:24:48;;;;;;;23.63;21.97;;;;;;;;;;5054349;28;20410;-91
2023/07/18 07:27:15;;;;;;;24.07;22.47;;;;;;;;;;5053502;28;20834;-90
2023/07/18 07:29:44;;;;;;;25.10;23.50;;;;;;;;;;5053241;28;21117;-91
2023/07/18 07:32:11;;;;;;;26.53;24.80;;;;;;;;;;5054080;28;20510;-89
2023/07/18 07:34:38;;;;;;;24.97;23.23;;;;;;;;;;5054450;28;20920;-91
2023/07/18 07:37:05;;;;;;;26.30;24.63;;;;;;;;;;5054492;28;20458;-86
2023/07/18 07:39:32;;;;;;;23.87;22.30;;;;;;;;;;5055696;28;20466;-86
2023/07/18 07:42:00;;;;;;;26.87;24.77;;;;;;;;;;5055082;28;20426;-87
2023/07/18 07:44:27;;;;;;;25.50;23.80;;;;;;;;;;5054331;28;20455;-86
2023/07/18 07:46:57;;;;;;;26.50;24.70;;;;;;;;;;5056124;28;20425;-86
2023/07/18 07:49:24;;;;;;;26.27;24.63;;;;;;;;;;5054665;28;20483;-88
2023/07/18 07:51:51;;;;;;;25.67;24.13;;;;;;;;;;5053928;28;20494;-86
2023/07/18 07:54:18;;;;;;;23.47;21.97;;;;;;;;;;5056105;28;20891;-86
2023/07/18 07:56:46;;;;;;;25.63;23.50;;;;;;;;;;5056147;28;20483;-85
2023/07/18 07:59:13;;;;;;;24.40;22.67;;;;;;;;;;5061676;28;20450;-85
2023/07/18 08:01:40;;;;;;;26.40;24.70;;;;;;;;;;5063204;28;20474;-85
2023/07/18 08:04:08;;;;;;;25.97;24.00;;;;;;;;;;5062822;28;20450;-84
2023/07/18 08:06:35;;;;;;;27.23;25.30;;;;;;;;;;5064987;28;20503;-84
2023/07/18 08:09:02;;;;;;;25.57;24.07;;;;;;;;;;5065953;28;20932;-85
2023/07/18 08:11:30;;;;;;;26.07;24.43;;;;;;;;;;5079028;28;20459;-85
2023/07/18 08:13:57;;;;;;;24.80;23.17;;;;;;;;;;5087338;28;21056;-84
2023/07/18 08:16:24;;;;;;;24.37;22.63;;;;;;;;;;5087524;28;20958;-84
2023/07/18 08:18:51;;;;;;;24.53;22.93;;;;;;;;;;5086315;28;20434;-84
2023/07/18 08:21:20;;;;;;;23.90;22.30;;;;;;;;;;5086479;28;20437;-84
2023/07/18 08:23:47;;;;;;;24.33;22.73;;;;;;;;;;5086411;28;20413;-85
2023/07/18 08:26:14;;;;;;;24.07;22.33;;;;;;;;;;5085489;28;20428;-85
2023/07/18 08:28:41;;;;;;;25.10;23.30;;;;;;;;;;5085107;28;20478;-85
2023/07/18 08:31:08;;;;;;;23.30;21.83;;;;;;;;;;5086267;28;20496;-85
2023/07/18 08:33:35;;;;;;;24.10;22.37;;;;;;;;;;5085283;28;20430;-85
2023/07/18 08:36:02;;;;;;;24.83;23.30;;;;;;;;;;5081310;28;20792;-86
2023/07/18 08:38:31;;;;;;;23.77;22.13;;;;;;;;;;5077471;28;20416;-86
2023/07/18 08:40:58;;;;;;;23.50;21.73;;;;;;;;;;5079142;28;20440;-89
2023/07/18 08:43:25;;;;;;;23.30;21.53;;;;;;;;;;5078094;28;20448;-85
2023/07/18 08:45:53;;;;;;;23.43;22.03;;;;;;;;;;5077492;28;20430;-89
2023/07/18 08:48:20;;;;;;;23.10;21.53;;;;;;;;;;5075898;28;20463;-90
2023/07/18 08:50:47;;;;;;;23.43;21.60;;;;;;;;;;5077491;28;20473;-92
2023/07/18 08:53:15;;;;;;;23.33;21.63;;;;;;;;;;5078663;28;20445;-92
2023/07/18 08:55:43;;;;;;;24.20;22.03;;;;;;;;;;5077528;28;20445;-90
2023/07/18 08:58:11;;;;;;;22.87;21.33;;;;;;;;;;5077104;28;21005;-91
2023/07/18 09:00:38;;;;;;;23.57;22.07;;;;;;;;;;5076136;28;20474;-88
2023/07/18 09:03:05;;;;;;;23.63;22.13;;;;;;;;;;5075896;28;20473;-87
2023/07/18 09:05:33;;;;;;;23.50;21.60;;;;;;;;;;5079341;28;21295;-82
2023/07/18 09:08:00;;;;;;;23.40;21.70;;;;;;;;;;5078570;28;20456;-84
2023/07/18 09:10:28;;;;;;;23.90;22.20;;;;;;;;;;5082147;28;20471;-82
2023/07/18 09:13:00;;;;;;;21.97;20.30;;;;;;;;;;5081204;28;20520;-84
2023/07/18 09:15:28;;;;;;;22.50;21.00;;;;;;;;;;5080473;28;20416;-85
2023/07/18 09:17:55;;;;;;;24.27;22.50;;;;;;;;;;5078677;28;20462;-84
2023/07/18 09:20:24;;;;;;;23.60;21.90;;;;;;;;;;5078831;28;20470;-86
2023/07/18 09:22:52;;;;;;;23.13;21.53;;;;;;;;;;5079319;28;20468;-84
2023/07/18 09:25:19;;;;;;;22.50;21.00;;;;;;;;;;5080145;28;20438;-83
2023/07/18 09:27:46;;;;;;;24.63;22.60;;;;;;;;;;5080010;28;20424;-84
2023/07/18 09:30:15;;;;;;;23.57;21.77;;;;;;;;;;5079256;28;20542;-85
2023/07/18 09:32:42;;;;;;;23.27;21.70;;;;;;;;;;5078932;28;20538;-85
2023/07/18 09:35:11;;;;;;;23.20;21.80;;;;;;;;;;5079468;28;20417;-84
2023/07/18 09:37:46;;;;;;;25.77;23.70;;;;;;;;;;5079601;28;20434;-84
2023/07/18 09:40:13;;;;;;;25.40;23.50;;;;;;;;;;5080156;28;20833;-85
2023/07/18 09:42:41;;;;;;;24.23;22.53;;;;;;;;;;5088736;28;20437;-85
2023/07/18 09:45:09;;;;;;;23.60;22.20;;;;;;;;;;5081812;28;20433;-85
2023/07/18 09:47:38;;;;;;;23.43;22.03;;;;;;;;;;5079823;28;20425;-84
2023/07/18 09:50:06;;;;;;;24.33;22.73;;;;;;;;;;5079005;28;20409;-84
2023/07/18 09:52:36;;;;;;;24.37;22.77;;;;;;;;;;5078775;28;20477;-85
2023/07/18 09:55:05;;;;;;;25.40;23.77;;;;;;;;;;5079219;28;20461;-85
2023/07/18 09:57:32;;;;;;;24.40;22.70;;;;;;;;;;5080182;28;20506;-84
2023/07/18 10:00:05;;;;;;;24.47;22.97;;;;;;;;;;5078649;28;20424;-84
2023/07/18 10:02:33;;;;;;;23.37;21.87;;;;;;;;;;5079621;28;20496;-84
2023/07/18 10:05:02;;;;;;;24.07;22.57;;;;;;;;;;5079183;28;20457;-84
2023/07/18 10:07:30;;;;;;;24.37;22.77;;;;;;;;;;5079040;28;20452;-84
2023/07/18 10:09:57;;;;;;;24.60;23.20;;;;;;;;;;5078231;28;20515;-85
2023/07/18 10:12:24;;;;;;;24.73;23.07;;;;;;;;;;5079027;28;20960;-84
2023/07/18 10:14:56;;;;;;;24.33;22.77;;;;;;;;;;5079326;28;20424;-84
2023/07/18 10:17:30;;;;;;;23.97;22.10;;;;;;;;;;5078849;28;20438;-84
2023/07/18 10:19:57;;;;;;;23.30;21.80;;;;;;;;;;5079637;28;20457;-85
2023/07/18 10:22:28;;;;;;;23.10;21.60;;;;;;;;;;5078478;28;20508;-85
2023/07/18 10:24:59;;;;;;;23.93;22.43;;;;;;;;;;5079125;28;20446;-84
2023/07/18 10:27:35;;;;;;;24.43;22.83;;;;;;;;;;5078772;28;20455;-84
2023/07/18 10:30:03;;;;;;;24.37;22.77;;;;;;;;;;5076082;28;20459;-85
2023/07/18 10:32:31;;;;;;;23.37;21.93;;;;;;;;;;5078148;28;20466;-85
2023/07/18 10:34:58;;;;;;;24.23;22.63;;;;;;;;;;5078637;28;20437;-84
2023/07/18 10:37:26;;;;;;;24.30;22.80;;;;;;;;;;5078581;28;20453;-85
2023/07/18 10:39:56;;;;;;;23.20;21.80;;;;;;;;;;5077759;28;21003;-85
2023/07/18 10:42:25;;;;;;;23.73;22.23;;;;;;;;;;5078315;28;20444;-85
2023/07/18 10:44:54;;;;;;;24.23;22.73;;;;;;;;;;5077697;28;20519;-84
2023/07/18 10:47:21;;;;;;;22.90;21.50;;;;;;;;;;5078762;28;20413;-85
2023/07/18 10:49:48;;;;;;;23.93;22.43;;;;;;;;;;5078745;28;20482;-84
2023/07/18 10:52:16;;;;;;;23.47;21.83;;;;;;;;;;5079680;28;20472;-82
2023/07/18 10:54:46;;;;;;;23.33;21.83;;;;;;;;;;5076153;28;20432;-85
2023/07/18 10:57:16;;;;;;;23.10;21.80;;;;;;;;;;5058201;28;20924;-86
2023/07/18 10:59:44;;;;;;;25.27;23.57;;;;;;;;;;5058656;28;20421;-84
2023/07/18 11:02:11;;;;;;;23.40;22.00;;;;;;;;;;5059159;28;20449;-85
2023/07/18 11:04:38;;;;;;;25.23;23.80;;;;;;;;;;5059017;28;20458;-86
2023/07/18 11:07:05;;;;;;;22.93;21.63;;;;;;;;;;5061399;28;20439;-85
2023/07/18 11:09:33;;;;;;;23.83;22.30;;;;;;;;;;5059448;28;20453;-84
2023/07/18 11:12:00;;;;;;;23.90;22.30;;;;;;;;;;5058893;28;20496;-87
2023/07/18 11:14:38;;;;;;;23.77;22.20;;;;;;;;;;5074712;28;20844;-87
2023/07/18 11:17:09;;;;;;;23.07;21.57;;;;;;;;;;5075687;28;20389;-85
2023/07/18 11:19:36;;;;;;;23.57;22.07;;;;;;;;;;5076416;28;20422;-90
2023/07/18 11:22:04;;;;;;;23.40;22.10;;;;;;;;;;5074334;28;20460;-89
2023/07/18 11:24:31;;;;;;;23.83;22.20;;;;;;;;;;5073883;28;20436;-90
2023/07/18 11:27:11;;;;;;;23.93;22.40;;;;;;;;;;5073441;28;20455;-90
2023/07/18 11:29:40;;;;;;;22.37;20.97;;;;;;;;;;5073662;28;20432;-85
2023/07/18 11:32:07;;;;;;;23.63;22.00;;;;;;;;;;5075551;28;20451;-85
2023/07/18 11:34:34;;;;;;;22.00;20.67;;;;;;;;;;5077938;28;20416;-87
2023/07/18 11:37:01;;;;;;;22.97;21.47;;;;;;;;;;5077440;28;20458;-85
2023/07/18 11:39:32;;;;;;;23.20;21.80;;;;;;;;;;5078993;28;20450;-85
2023/07/18 11:42:08;;;;;;;22.83;21.43;;;;;;;;;;5083907;28;20443;-85
2023/07/18 11:44:35;;;;;;;22.47;21.00;;;;;;;;;;5081994;28;20497;-85
2023/07/18 11:47:12;;;;;;;22.90;21.40;;;;;;;;;;5081174;28;20456;-85
2023/07/18 11:49:39;;;;;;;22.40;20.97;;;;;;;;;;5080190;28;20451;-86
2023/07/18 11:52:08;;;;;;;22.60;21.20;;;;;;;;;;5080471;28;20505;-85
2023/07/18 11:54:36;;;;;;;22.10;20.70;;;;;;;;;;5078901;28;20449;-87
2023/07/18 11:57:03;;;;;;;22.20;20.80;;;;;;;;;;5077583;28;21000;-86
2023/07/18 11:59:30;;;;;;;23.20;21.60;;;;;;;;;;5077403;28;20750;-86
2023/07/18 12:01:58;;;;;;;23.23;21.70;;;;;;;;;;5076308;28;20459;-87
2023/07/18 12:04:26;;;;;;;22.10;20.60;;;;;;;;;;5075872;28;20432;-86
2023/07/18 12:06:53;;;;;;;22.33;20.97;;;;;;;;;;5075690;28;20436;-86
2023/07/18 12:09:21;;;;;;;23.10;21.70;;;;;;;;;;5075629;28;20451;-86
2023/07/18 12:11:48;;;;;;;23.03;21.53;;;;;;;;;;5076659;28;20950;-82
2023/07/18 12:14:15;;;;;;;23.47;21.97;;;;;;;;;;5078162;28;20488;-86
2023/07/18 12:16:42;;;;;;;23.40;21.80;;;;;;;;;;5079247;28;20441;-86
2023/07/18 12:19:09;;;;;;;22.47;21.07;;;;;;;;;;5076448;28;20423;-84
2023/07/18 12:21:38;;;;;;;22.90;21.40;;;;;;;;;;5077263;28;20454;-86
2023/07/18 12:24:05;;;;;;;22.90;21.40;;;;;;;;;;5077054;28;20413;-89
2023/07/18 12:26:32;;;;;;;22.00;20.60;;;;;;;;;;5054469;28;20528;-90
2023/07/18 12:29:00;;;;;;;22.90;21.03;;;;;;;;;;5058501;28;20967;-90
2023/07/18 12:31:27;;;;;;;22.80;21.10;;;;;;;;;;5058599;28;20459;-90
2023/07/18 12:33:54;;;;;;;23.27;21.57;;;;;;;;;;5057969;28;20420;-91
2023/07/18 12:36:21;;;;;;;21.90;20.60;;;;;;;;;;5057670;28;20528;-90
2023/07/18 12:38:49;;;;;;;22.60;21.20;;;;;;;;;;5057654;28;20433;-91
2023/07/18 12:41:16;;;;;;;22.17;20.77;;;;;;;;;;5058095;28;20478;-91
2023/07/18 12:43:43;;;;;;;22.77;21.27;;;;;;;;;;5057148;28;20458;-85
2023/07/18 12:46:11;;;;;;;22.87;21.37;;;;;;;;;;5057998;28;20413;-86
2023/07/18 12:48:38;;;;;;;22.47;21.00;;;;;;;;;;5056846;28;20944;-86
2023/07/18 12:51:05;;;;;;;23.73;21.80;;;;;;;;;;5061217;28;20452;-86
2023/07/18 12:53:33;;;;;;;22.70;21.30;;;;;;;;;;5075544;28;20408;-85
2023/07/18 12:56:01;;;;;;;22.23;20.83;;;;;;;;;;5075804;28;20446;-85
2023/07/18 12:58:28;;;;;;;22.73;21.23;;;;;;;;;;5075531;28;20875;-86
2023/07/18 13:00:56;;;;;;;22.37;20.97;;;;;;;;;;5075216;28;20443;-86
2023/07/18 13:03:23;;;;;;;22.70;21.20;;;;;;;;;;5075355;28;20564;-86
2023/07/18 13:05:50;;;;;;;22.23;20.83;;;;;;;;;;5075846;28;20782;-86
2023/07/18 13:08:17;;;;;;;22.10;20.70;;;;;;;;;;5077527;28;20804;-81
2023/07/18 13:10:44;;;;;;;22.63;21.13;;;;;;;;;;5079232;28;20493;-81
2023/07/18 13:13:12;;;;;;;22.63;21.10;;;;;;;;;;5080209;28;20435;-81
2023/07/18 13:15:39;;;;;;;23.23;21.63;;;;;;;;;;5077358;28;20811;-90
2023/07/18 13:18:08;;;;;;;22.47;20.87;;;;;;;;;;5067000;28;20443;-84
2023/07/18 13:20:35;;;;;;;22.73;21.20;;;;;;;;;;5058056;28;20455;-90
2023/07/18 13:23:02;;;;;;;22.90;21.20;;;;;;;;;;5058765;28;20447;-90
2023/07/18 13:25:30;;;;;;;22.40;20.90;;;;;;;;;;5058148;28;20528;-84
2023/07/18 13:27:58;;;;;;;22.90;21.30;;;;;;;;;;5057673;28;20478;-85
2023/07/18 13:30:26;;;;;;;23.30;21.43;;;;;;;;;;5057100;28;20482;-89
2023/07/18 13:32:53;;;;;;;23.20;21.70;;;;;;;;;;5056616;28;20451;-88
2023/07/18 13:35:21;;;;;;;22.93;21.23;;;;;;;;;;5058690;28;20425;-87
2023/07/18 13:37:48;;;;;;;23.37;21.80;;;;;;;;;;5059697;28;20500;-88
2023/07/18 13:40:15;;;;;;;22.10;20.70;;;;;;;;;;5042597;28;20531;-88
2023/07/18 13:42:42;;;;;;;23.80;22.20;;;;;;;;;;5036226;28;20463;-87
2023/07/18 13:45:10;;;;;;;23.03;21.53;;;;;;;;;;5036103;28;20455;-87
2023/07/18 13:47:39;;;;;;;24.20;22.60;;;;;;;;;;5036667;28;20509;-86
2023/07/18 13:50:06;;;;;;;23.73;22.10;;;;;;;;;;5035116;28;20497;-87
2023/07/18 13:52:33;;;;;;;23.80;22.23;;;;;;;;;;5035593;28;20446;-87
2023/07/18 13:55:00;;;;;;;22.90;21.40;;;;;;;;;;5035404;28;20447;-86
2023/07/18 13:57:27;;;;;;;22.93;21.33;;;;;;;;;;5051599;28;20459;-83
2023/07/18 13:59:54;;;;;;;23.77;21.87;;;;;;;;;;5060857;28;20439;-88
2023/07/18 14:02:22;;;;;;;22.90;21.20;;;;;;;;;;5057011;28;20478;-83
2023/07/18 14:04:50;;;;;;;23.07;21.37;;;;;;;;;;5055517;28;20466;-87
2023/07/18 14:07:18;;;;;;;23.30;21.70;;;;;;;;;;5055661;28;20482;-88
2023/07/18 14:09:45;;;;;;;22.63;21.00;;;;;;;;;;5054543;28;20483;-88
2023/07/18 14:12:12;;;;;;;23.50;22.00;;;;;;;;;;5054924;28;20459;-87
2023/07/18 14:14:39;;;;;;;22.27;20.87;;;;;;;;;;5054312;28;20945;-86
2023/07/18 14:17:06;;;;;;;23.23;21.63;;;;;;;;;;5054633;28;20756;-87
2023/07/18 14:19:33;;;;;;;23.47;21.67;;;;;;;;;;5053314;28;20803;-87
2023/07/18 14:22:02;;;;;;;23.57;22.00;;;;;;;;;;5054752;28;20482;-88